Port Alberni, Canada
Current Conditions -  °F | °C
As of 3:00 PM on Sunday 21 Dec 2014 (Local Time) from CYQQ Reporting Station
Broken Clouds Broken Clouds  
Wind Chill: 46°   Ceiling: 23000
Heat Index: 46°   Visibility: 20mi
Dew Point: 45°   Wind: 2mph
Humidity: 93%   Direction: 200°SSW
Pressure: 29.9"   Gusts: NA
Location:  49.23°N, 124.81°W
Report Text: CYQQ 212300Z 20002KT 20SM FEW030 FEW050 BKN230 08/07 A2990 RMK SC1SC1CI6 SLP125
Loading
Personal Weather Stations






























Interactive Weather Map New forecast layout! Learn more

10-Day Weather Forecast

Advertisements
Track Severe Weather on mobile